Time;durP1;ratioP1;P1;durP2;ratioP2;P2;SDS_P1;SDS_P2;PMS_P1;PMS_P2;Temp;Humidity;BMP_temperature;BMP_pressure;BME280_temperature;BME280_humidity;BME280_pressure;Samples;Min_cycle;Max_cycle;Signal;HPM_P1;HPM_P2
2021/10/27 00:00:28;;;;;;;4.45;1.45;;;15.50;83.30;;;;;;5006200;28;20034;-77
2021/10/27 00:02:53;;;;;;;2.92;1.38;;;15.50;83.30;;;;;;5003784;28;20076;-77
2021/10/27 00:05:19;;;;;;;4.22;1.38;;;15.40;83.10;;;;;;4986553;28;20042;-77
2021/10/27 00:07:46;;;;;;;2.47;1.48;;;15.40;83.10;;;;;;4985847;28;20778;-78
2021/10/27 00:10:12;;;;;;;2.88;1.35;;;15.40;83.30;;;;;;4986955;28;20057;-77
2021/10/27 00:12:39;;;;;;;2.63;1.45;;;15.40;83.10;;;;;;4985133;28;20493;-76
2021/10/27 00:15:08;;;;;;;3.22;1.60;;;15.40;83.10;;;;;;4987165;28;20066;-77
2021/10/27 00:17:34;;;;;;;3.95;1.50;;;15.40;83.20;;;;;;4987480;28;20054;-77
2021/10/27 00:20:00;;;;;;;2.95;1.48;;;15.40;83.20;;;;;;4985186;28;20034;-78
2021/10/27 00:22:27;;;;;;;3.22;1.20;;;15.40;83.20;;;;;;4986913;28;20031;-77
2021/10/27 00:24:54;;;;;;;1.83;1.45;;;15.40;83.20;;;;;;5003152;28;20129;-78
2021/10/27 00:27:19;;;;;;;5.20;2.15;;;15.40;83.20;;;;;;4990286;28;20434;-78
2021/10/27 00:29:45;;;;;;;4.45;1.40;;;15.40;83.30;;;;;;4990550;28;20124;-77
2021/10/27 00:32:11;;;;;;;5.85;1.73;;;15.40;83.30;;;;;;4990723;28;20022;-78
2021/10/27 00:34:37;;;;;;;3.45;2.10;;;15.40;83.30;;;;;;5006588;28;20088;-77
2021/10/27 00:37:03;;;;;;;3.67;1.45;;;15.40;83.30;;;;;;5009756;28;20401;-78
2021/10/27 00:39:29;;;;;;;3.20;1.42;;;15.40;83.30;;;;;;4997742;28;20034;-77
2021/10/27 00:41:55;;;;;;;2.75;1.33;;;15.40;83.30;;;;;;4989222;28;20493;-77
2021/10/27 00:44:23;;;;;;;3.08;1.30;;;15.40;83.40;;;;;;4989615;28;20129;-79
2021/10/27 00:47:09;;;;;;;3.60;2.05;;;15.40;83.30;;;;;;4990350;28;20290;-78
2021/10/27 00:49:36;;;;;;;5.75;2.08;;;15.40;83.40;;;;;;4989674;28;20402;-77
2021/10/27 00:52:04;;;;;;;5.35;1.63;;;15.40;83.40;;;;;;5005068;28;20109;-77
2021/10/27 00:54:32;;;;;;;3.83;1.23;;;15.40;83.40;;;;;;5004512;28;20038;-77
2021/10/27 00:57:00;;;;;;;2.25;1.50;;;15.40;83.30;;;;;;5009564;28;20034;-76
2021/10/27 00:59:27;;;;;;;2.72;1.67;;;15.40;83.30;;;;;;4998042;28;20034;-77
2021/10/27 01:01:54;;;;;;;4.43;1.63;;;15.40;83.30;;;;;;4988925;28;20038;-77
2021/10/27 01:04:23;;;;;;;3.40;1.50;;;15.40;83.30;;;;;;4989409;28;20653;-76
2021/10/27 01:06:50;;;;;;;3.45;1.65;;;15.40;83.40;;;;;;4989417;28;20113;-76
2021/10/27 01:09:18;;;;;;;8.20;3.08;;;15.40;83.30;;;;;;4989717;28;20038;-76
2021/10/27 01:11:45;;;;;;;3.30;1.35;;;15.40;83.30;;;;;;4989488;28;20621;-76
2021/10/27 01:14:12;;;;;;;7.20;1.77;;;15.40;83.30;;;;;;4989452;28;20634;-77
2021/10/27 01:16:38;;;;;;;9.45;3.30;;;15.40;83.30;;;;;;4989217;28;20046;-76
2021/10/27 01:19:05;;;;;;;7.00;2.10;;;15.40;83.40;;;;;;4989579;28;20073;-76
2021/10/27 01:21:31;;;;;;;3.75;1.58;;;15.40;83.40;;;;;;4971812;28;20033;-78
2021/10/27 01:23:59;;;;;;;5.95;1.77;;;15.40;83.40;;;;;;4988134;28;20587;-78
2021/10/27 01:26:26;;;;;;;4.22;1.50;;;15.40;83.40;;;;;;4989527;28;20470;-77
2021/10/27 01:28:52;;;;;;;2.55;1.48;;;15.40;83.40;;;;;;4989189;28;20030;-76
2021/10/27 01:31:18;;;;;;;3.83;1.80;;;15.40;83.40;;;;;;4989494;28;20030;-77
2021/10/27 01:33:46;;;;;;;2.63;1.23;;;15.40;83.40;;;;;;4996199;28;20301;-76
2021/10/27 01:36:16;;;;;;;4.82;1.92;;;15.40;83.40;;;;;;5005495;28;20034;-76
2021/10/27 01:38:44;;;;;;;2.83;1.17;;;15.40;83.40;;;;;;5015227;28;20110;-77
2021/10/27 01:41:10;;;;;;;6.45;1.75;;;15.40;83.40;;;;;;4991097;28;20030;-77
2021/10/27 01:43:55;;;;;;;3.13;1.17;;;15.40;83.40;;;;;;4990553;28;20133;-77
2021/10/27 01:46:32;;;;;;;4.55;1.15;;;15.40;83.50;;;;;;4990961;28;20069;-77
2021/10/27 01:48:59;;;;;;;2.72;1.30;;;15.50;83.60;;;;;;4993600;28;20624;-77
2021/10/27 01:51:26;;;;;;;4.95;1.73;;;15.50;83.60;;;;;;5010751;28;20591;-77
2021/10/27 01:53:53;;;;;;;6.03;1.70;;;15.50;83.60;;;;;;5001006;28;20030;-77
2021/10/27 01:56:20;;;;;;;8.10;1.75;;;15.50;83.60;;;;;;4993613;28;20031;-77
2021/10/27 01:58:48;;;;;;;4.38;1.30;;;15.50;83.60;;;;;;4993797;28;20040;-77
2021/10/27 02:01:14;;;;;;;3.67;1.25;;;15.50;83.50;;;;;;4993445;28;20030;-77
2021/10/27 02:03:40;;;;;;;4.25;2.20;;;15.50;83.50;;;;;;4993562;28;20457;-76
2021/10/27 02:06:05;;;;;;;4.47;1.10;;;15.40;83.30;;;;;;4993316;28;20459;-77
2021/10/27 02:08:32;;;;;;;4.47;1.42;;;15.40;83.30;;;;;;4993120;28;20034;-77
2021/10/27 02:10:58;;;;;;;6.43;1.77;;;15.40;83.30;;;;;;4993779;28;20401;-77
2021/10/27 02:13:24;;;;;;;4.32;1.73;;;15.50;83.50;;;;;;4993225;28;20072;-77
2021/10/27 02:15:50;;;;;;;3.28;1.67;;;15.50;83.50;;;;;;4993265;28;20490;-76
2021/10/27 02:18:16;;;;;;;3.97;1.30;;;15.50;83.50;;;;;;4993515;28;20706;-78
2021/10/27 02:20:42;;;;;;;4.95;1.50;;;15.50;83.50;;;;;;4994302;28;20359;-77
2021/10/27 02:23:08;;;;;;;4.15;1.50;;;15.50;83.50;;;;;;4993129;28;20037;-77
2021/10/27 02:25:34;;;;;;;4.13;1.75;;;15.40;83.30;;;;;;4991461;28;20516;-76
2021/10/27 02:28:00;;;;;;;2.95;1.23;;;15.50;83.50;;;;;;4993318;28;20108;-76
2021/10/27 02:30:26;;;;;;;6.47;1.70;;;15.50;83.50;;;;;;4993134;28;20084;-77
2021/10/27 02:32:52;;;;;;;3.22;1.15;;;15.50;83.50;;;;;;4991727;28;20041;-76
2021/10/27 02:35:18;;;;;;;4.40;1.42;;;15.50;83.50;;;;;;4993194;28;20034;-75
2021/10/27 02:37:45;;;;;;;4.75;1.77;;;15.50;83.50;;;;;;5007468;28;20037;-76
2021/10/27 02:40:11;;;;;;;4.10;1.15;;;15.50;83.50;;;;;;4992715;28;20269;-75
2021/10/27 02:42:38;;;;;;;3.78;1.75;;;15.50;83.50;;;;;;4992845;28;20039;-75
2021/10/27 02:45:10;;;;;;;2.60;1.23;;;15.50;83.50;;;;;;4991279;28;20137;-75
2021/10/27 02:47:38;;;;;;;3.47;1.73;;;15.50;83.50;;;;;;4992404;28;20026;-76
2021/10/27 02:50:06;;;;;;;4.07;1.10;;;15.50;83.50;;;;;;4992451;28;20514;-76
2021/10/27 02:52:32;;;;;;;5.65;1.35;;;15.50;83.40;;;;;;4992820;28;20031;-77
2021/10/27 02:54:58;;;;;;;3.63;1.83;;;15.50;83.40;;;;;;4992795;28;20031;-76
2021/10/27 02:57:25;;;;;;;7.15;2.20;;;15.60;83.60;;;;;;4992385;28;20057;-76
2021/10/27 02:59:51;;;;;;;3.55;1.60;;;15.60;83.60;;;;;;4992574;28;20398;-77
2021/10/27 03:02:16;;;;;;;3.10;1.05;;;15.60;84.10;;;;;;4974967;28;20041;-77
2021/10/27 03:04:42;;;;;;;3.45;1.52;;;15.60;83.60;;;;;;5007282;28;20042;-77
2021/10/27 03:07:08;;;;;;;6.90;2.38;;;15.60;83.60;;;;;;4992089;28;20537;-77
2021/10/27 03:09:34;;;;;;;3.17;1.48;;;15.50;83.30;;;;;;4992458;28;20030;-76
2021/10/27 03:12:01;;;;;;;5.93;1.73;;;15.60;83.50;;;;;;4992111;28;20449;-77
2021/10/27 03:14:28;;;;;;;4.28;2.03;;;15.50;83.30;;;;;;4992162;28;20038;-77
2021/10/27 03:16:55;;;;;;;3.05;1.48;;;15.60;83.50;;;;;;4991206;28;20541;-77
2021/10/27 03:19:21;;;;;;;3.33;1.10;;;15.50;83.30;;;;;;5007465;28;20037;-76
2021/10/27 03:21:47;;;;;;;5.15;1.35;;;15.50;83.30;;;;;;4991153;28;20038;-77
2021/10/27 03:24:13;;;;;;;3.35;1.10;;;15.50;83.30;;;;;;4991987;28;20065;-77
2021/10/27 03:26:39;;;;;;;3.75;1.10;;;15.50;83.30;;;;;;4992244;28;20109;-77
2021/10/27 03:29:05;;;;;;;3.45;0.95;;;15.50;83.30;;;;;;4990994;28;20122;-77
2021/10/27 03:31:31;;;;;;;1.52;0.90;;;15.50;83.20;;;;;;4991708;28;20030;-76
2021/10/27 03:33:57;;;;;;;2.47;1.35;;;15.50;83.80;;;;;;5007150;28;20030;-77
2021/10/27 03:36:24;;;;;;;1.05;0.70;;;15.50;83.30;;;;;;4991899;28;20031;-78
2021/10/27 03:38:50;;;;;;;2.05;1.20;;;15.50;83.30;;;;;;4991907;28;20034;-77
2021/10/27 03:41:16;;;;;;;2.15;0.90;;;15.50;83.30;;;;;;4992055;28;20073;-76
2021/10/27 03:43:43;;;;;;;3.45;1.25;;;15.50;83.30;;;;;;4990758;28;20050;-76
2021/10/27 03:46:10;;;;;;;3.67;1.00;;;15.50;83.40;;;;;;4974472;28;20040;-76
2021/10/27 03:48:37;;;;;;;3.60;1.83;;;15.50;83.40;;;;;;4990168;28;20054;-77
2021/10/27 03:51:04;;;;;;;3.00;1.23;;;15.50;83.90;;;;;;4991719;28;20057;-77
2021/10/27 03:53:30;;;;;;;2.63;1.20;;;15.50;83.40;;;;;;4992085;28;20457;-77
2021/10/27 03:55:56;;;;;;;4.78;1.20;;;15.50;83.40;;;;;;4991975;28;20081;-77
2021/10/27 03:58:22;;;;;;;2.92;1.00;;;15.50;83.40;;;;;;4992119;28;20056;-75
2021/10/27 04:00:48;;;;;;;2.05;1.00;;;15.50;83.40;;;;;;4990189;28;20096;-77
2021/10/27 04:03:23;;;;;;;2.15;1.05;;;15.50;83.50;;;;;;4990310;28;20034;-76
2021/10/27 04:05:49;;;;;;;2.85;0.80;;;15.50;83.50;;;;;;4992101;28;20058;-77
2021/10/27 04:08:16;;;;;;;1.88;1.00;;;15.50;83.50;;;;;;4991117;28;20394;-77
2021/10/27 04:10:45;;;;;;;2.83;0.93;;;15.50;83.50;;;;;;4991674;28;20030;-76
2021/10/27 04:13:13;;;;;;;2.13;0.75;;;15.50;83.50;;;;;;4991977;28;20034;-76
2021/10/27 04:15:39;;;;;;;2.38;0.90;;;15.50;83.50;;;;;;4990260;28;20393;-77
2021/10/27 04:18:05;;;;;;;2.15;1.00;;;15.50;83.50;;;;;;4991176;28;20026;-78
2021/10/27 04:20:31;;;;;;;2.25;0.90;;;15.50;83.50;;;;;;5006885;28;20072;-76
2021/10/27 04:22:57;;;;;;;2.88;1.30;;;15.60;83.70;;;;;;4991547;28;20131;-77
2021/10/27 04:25:23;;;;;;;3.08;1.15;;;15.50;83.50;;;;;;4991371;28;20153;-77
2021/10/27 04:27:49;;;;;;;2.17;1.00;;;15.50;83.50;;;;;;4991482;28;20034;-78
2021/10/27 04:30:15;;;;;;;2.38;1.10;;;15.60;83.70;;;;;;4979282;28;20384;-77
2021/10/27 04:32:41;;;;;;;3.35;1.00;;;15.60;83.70;;;;;;4991646;28;20038;-77
2021/10/27 04:35:08;;;;;;;3.83;0.98;;;15.50;83.60;;;;;;5006870;28;20596;-78
2021/10/27 04:37:38;;;;;;;2.20;0.80;;;15.50;83.60;;;;;;4990650;28;20559;-77
2021/10/27 04:40:09;;;;;;;2.58;0.90;;;15.50;83.60;;;;;;4991193;28;20041;-77
2021/10/27 04:42:36;;;;;;;3.17;1.13;;;15.50;83.60;;;;;;4991454;28;20478;-77
2021/10/27 04:45:06;;;;;;;2.30;0.90;;;15.50;83.60;;;;;;4991473;28;20101;-77
2021/10/27 04:47:32;;;;;;;2.47;0.80;;;15.60;83.70;;;;;;4988169;28;20033;-77
2021/10/27 04:49:58;;;;;;;3.22;1.40;;;15.50;83.60;;;;;;4987930;28;20097;-77
2021/10/27 04:52:25;;;;;;;2.25;1.02;;;15.60;83.70;;;;;;4988382;28;20289;-77
2021/10/27 04:54:51;;;;;;;3.33;1.20;;;15.50;83.50;;;;;;4988026;28;20030;-76
2021/10/27 04:57:17;;;;;;;5.40;1.73;;;15.50;83.50;;;;;;5003875;28;20038;-76
2021/10/27 04:59:44;;;;;;;4.03;1.35;;;15.50;83.50;;;;;;5007338;28;20041;-76
2021/10/27 05:02:15;;;;;;;1.85;0.85;;;15.50;83.50;;;;;;5004045;28;20022;-76
2021/10/27 05:04:41;;;;;;;3.65;0.98;;;15.50;83.50;;;;;;4965819;28;20501;-78
2021/10/27 05:07:10;;;;;;;2.95;1.20;;;15.50;83.50;;;;;;4981303;28;20031;-77
2021/10/27 05:09:36;;;;;;;3.42;2.03;;;15.60;83.60;;;;;;5004393;28;20034;-78
2021/10/27 05:12:04;;;;;;;4.40;1.00;;;15.50;83.50;;;;;;5005491;28;20487;-77
2021/10/27 05:14:37;;;;;;;1.73;0.88;;;15.50;83.50;;;;;;4989590;28;20460;-78
2021/10/27 05:17:09;;;;;;;3.53;2.03;;;15.50;83.50;;;;;;4989763;28;20030;-78
2021/10/27 05:19:37;;;;;;;3.33;1.10;;;15.50;83.50;;;;;;5009374;28;20049;-78
2021/10/27 05:22:04;;;;;;;3.10;1.17;;;15.50;83.50;;;;;;5007377;28;20034;-77
2021/10/27 05:24:30;;;;;;;2.08;0.82;;;15.50;83.50;;;;;;4993397;28;20133;-78
2021/10/27 05:26:56;;;;;;;3.00;1.08;;;15.60;83.70;;;;;;5003191;28;20306;-77
2021/10/27 05:29:22;;;;;;;3.40;1.55;;;15.50;83.50;;;;;;5008396;28;20366;-77
2021/10/27 05:31:49;;;;;;;2.58;1.50;;;15.50;83.50;;;;;;5007528;28;20044;-76
2021/10/27 05:34:15;;;;;;;6.97;2.08;;;15.50;83.50;;;;;;4989359;28;20040;-76
2021/10/27 05:36:42;;;;;;;3.58;1.00;;;15.60;83.70;;;;;;4989426;28;20027;-77
2021/10/27 05:39:11;;;;;;;2.97;1.02;;;15.60;83.70;;;;;;5004711;28;20443;-78
2021/10/27 05:41:39;;;;;;;3.92;0.80;;;15.60;83.70;;;;;;5009496;28;20105;-78
2021/10/27 05:44:05;;;;;;;2.67;1.08;;;15.60;83.70;;;;;;4990832;28;20030;-76
2021/10/27 05:46:31;;;;;;;1.80;1.40;;;15.60;83.60;;;;;;4989357;28;20437;-78
2021/10/27 05:49:11;;;;;;;1.90;0.98;;;15.60;83.60;;;;;;5002153;28;20084;-77
2021/10/27 05:51:47;;;;;;;2.58;0.98;;;15.60;83.60;;;;;;5008665;28;20051;-77
2021/10/27 05:56:58;;;;;;;4.80;1.20;;;15.60;83.50;;;;;;5008540;28;20092;-79
2021/10/27 05:59:24;;;;;;;3.85;1.20;;;15.60;83.50;;;;;;5008554;28;20500;-80
2021/10/27 06:01:51;;;;;;;2.13;0.90;;;15.60;83.40;;;;;;5007150;28;20547;-78
2021/10/27 06:04:17;;;;;;;2.85;1.33;;;15.60;83.40;;;;;;5008403;28;20053;-78
2021/10/27 06:06:44;;;;;;;3.50;1.13;;;15.60;83.40;;;;;;5008717;28;20040;-81
2021/10/27 06:09:10;;;;;;;1.13;0.85;;;15.60;83.40;;;;;;5008228;28;20057;-77
2021/10/27 06:11:37;;;;;;;4.68;1.30;;;15.60;83.30;;;;;;5008520;28;20037;-78
2021/10/27 06:14:04;;;;;;;3.08;0.90;;;15.60;83.30;;;;;;4990345;28;20042;-80
2021/10/27 06:16:31;;;;;;;4.03;1.08;;;15.60;83.30;;;;;;4988108;28;20030;-79
2021/10/27 06:18:57;;;;;;;4.60;1.63;;;15.60;83.30;;;;;;5002627;28;20117;-80
2021/10/27 06:21:23;;;;;;;2.75;1.02;;;15.60;83.30;;;;;;5023067;28;20048;-77
2021/10/27 06:23:49;;;;;;;2.85;1.20;;;15.60;83.40;;;;;;4992159;28;20030;-83
2021/10/27 06:26:19;;;;;;;5.55;1.10;;;15.60;83.40;;;;;;4987889;28;20036;-78
2021/10/27 06:31:51;;;;;;;6.55;1.75;;;15.60;83.40;;;;;;4997291;28;20340;-78
2021/10/27 06:34:33;;;;;;;1.95;0.93;;;15.60;83.40;;;;;;4988143;28;20470;-77
2021/10/27 06:37:14;;;;;;;2.67;1.20;;;15.60;83.40;;;;;;4986855;28;20034;-77
2021/10/27 06:47:51;;;;;;;6.10;2.13;;;15.60;83.50;;;;;;4989708;28;20320;-79
2021/10/27 06:50:17;;;;;;;7.82;2.00;;;15.70;84.20;;;;;;5006491;28;20103;-78
2021/10/27 06:52:44;;;;;;;6.70;2.80;;;15.70;84.70;;;;;;5000165;28;20030;-79
2021/10/27 06:55:10;;;;;;;4.05;1.98;;;15.80;85.20;;;;;;4985898;28;20026;-79
2021/10/27 06:57:36;;;;;;;4.97;2.15;;;15.90;85.60;;;;;;4989002;28;20512;-79
2021/10/27 07:00:21;;;;;;;5.57;2.00;;;16.00;85.90;;;;;;5006738;28;20029;-78
2021/10/27 07:05:35;;;;;;;6.82;1.88;;;16.10;86.20;;;;;;4974037;28;20565;-77
2021/10/27 07:16:11;;;;;;;5.18;1.75;;;16.40;86.30;;;;;;4986699;28;20030;-79
2021/10/27 07:18:37;;;;;;;4.28;1.95;;;16.40;86.20;;;;;;4997445;28;20485;-78
2021/10/27 07:21:03;;;;;;;5.32;1.50;;;16.50;86.60;;;;;;5007495;28;20057;-77
2021/10/27 07:23:30;;;;;;;4.87;1.83;;;16.50;86.30;;;;;;4994551;28;20389;-81
2021/10/27 07:25:59;;;;;;;4.50;2.42;;;16.50;86.10;;;;;;4988085;28;20035;-78
2021/10/27 07:28:30;;;;;;;5.30;2.05;;;16.60;86.20;;;;;;5002903;28;20030;-77
2021/10/27 07:30:58;;;;;;;6.75;2.70;;;16.60;86.10;;;;;;5007079;28;20069;-79
2021/10/27 07:33:26;;;;;;;4.88;2.13;;;16.70;86.10;;;;;;4994745;28;20034;-78
2021/10/27 07:41:12;;;;;;;5.20;2.45;;;16.70;85.80;;;;;;5007254;28;20030;-78
2021/10/27 07:43:38;;;;;;;5.80;1.88;;;16.80;85.80;;;;;;4991828;28;20042;-79
2021/10/27 07:46:04;;;;;;;5.15;2.15;;;16.80;85.70;;;;;;4987493;28;20510;-77
2021/10/27 07:48:31;;;;;;;4.50;1.80;;;16.80;85.60;;;;;;4990517;28;20137;-77
2021/10/27 07:50:58;;;;;;;8.75;2.92;;;16.80;85.40;;;;;;4972609;28;20065;-77
2021/10/27 07:53:26;;;;;;;4.93;2.33;;;16.90;85.50;;;;;;4980008;28;20362;-77
2021/10/27 07:55:54;;;;;;;6.53;1.45;;;16.90;85.30;;;;;;4986185;28;20539;-78
2021/10/27 07:58:22;;;;;;;4.95;1.95;;;16.90;85.20;;;;;;4995655;28;20037;-78
2021/10/27 08:00:59;;;;;;;6.85;1.58;;;16.90;85.10;;;;;;5007316;28;20030;-78
2021/10/27 08:03:26;;;;;;;2.55;1.65;;;17.00;85.00;;;;;;4993590;28;20482;-78
2021/10/27 08:05:53;;;;;;;4.20;2.25;;;16.90;84.70;;;;;;4986851;28;20481;-77
2021/10/27 08:08:22;;;;;;;4.10;1.50;;;17.00;85.00;;;;;;4995508;28;20933;-78
2021/10/27 08:10:50;;;;;;;4.93;2.05;;;17.00;84.60;;;;;;5006417;28;20448;-77
2021/10/27 08:13:18;;;;;;;4.50;1.60;;;17.00;84.40;;;;;;5006031;28;20124;-76
2021/10/27 08:15:44;;;;;;;3.38;1.58;;;17.10;84.50;;;;;;5021991;28;20507;-76
2021/10/27 08:18:16;;;;;;;6.82;2.30;;;17.10;84.80;;;;;;4993334;28;20487;-77
2021/10/27 08:20:44;;;;;;;6.50;2.10;;;17.10;84.20;;;;;;5007001;28;20026;-77
2021/10/27 08:23:14;;;;;;;5.15;1.85;;;17.10;84.10;;;;;;4994864;28;20030;-77
2021/10/27 08:25:44;;;;;;;3.97;2.38;;;17.10;84.00;;;;;;4987826;28;20050;-77
2021/10/27 08:28:16;;;;;;;3.22;1.63;;;17.10;83.90;;;;;;4993491;28;20033;-78
2021/10/27 08:30:53;;;;;;;6.03;2.28;;;17.20;83.90;;;;;;5021662;28;20042;-77
2021/10/27 08:35:58;;;;;;;4.35;1.70;;;17.20;83.70;;;;;;4986784;28;20479;-77
2021/10/27 08:38:25;;;;;;;4.30;2.15;;;17.20;83.70;;;;;;4987103;28;20034;-77
2021/10/27 08:40:51;;;;;;;5.18;2.00;;;17.20;83.60;;;;;;4987277;28;20039;-77
2021/10/27 08:43:17;;;;;;;6.32;3.00;;;17.20;83.50;;;;;;4996176;28;20393;-78
2021/10/27 08:45:43;;;;;;;7.13;1.92;;;17.30;83.60;;;;;;5008420;28;20691;-78
2021/10/27 08:48:15;;;;;;;5.45;1.75;;;17.30;83.50;;;;;;4995823;28;20096;-77
2021/10/27 08:50:43;;;;;;;5.60;2.23;;;17.30;83.40;;;;;;5010001;28;20482;-77
2021/10/27 08:53:13;;;;;;;7.28;2.15;;;17.40;83.60;;;;;;5000076;28;20034;-79
2021/10/27 08:55:45;;;;;;;3.28;2.15;;;17.40;83.50;;;;;;4990441;28;20501;-77
2021/10/27 08:58:22;;;;;;;8.15;2.92;;;17.50;83.60;;;;;;5011637;28;20419;-78
2021/10/27 09:36:35;;;;;;;5.05;2.55;;;17.80;82.50;;;;;;5009753;28;20389;-78
2021/10/27 10:06:07;;;;;;;5.70;2.03;;;18.20;81.40;;;;;;4989416;28;20034;-78
2021/10/27 10:08:33;;;;;;;6.18;2.63;;;18.20;81.20;;;;;;4999270;28;20027;-80
2021/10/27 10:10:59;;;;;;;8.00;2.65;;;18.30;81.20;;;;;;5024615;28;20034;-78
2021/10/27 10:13:26;;;;;;;6.03;2.55;;;18.40;81.20;;;;;;5012277;28;20093;-78
2021/10/27 10:15:52;;;;;;;4.47;2.35;;;18.40;80.90;;;;;;4989744;28;20034;-78
2021/10/27 10:18:23;;;;;;;5.50;2.42;;;18.50;80.80;;;;;;5009088;28;20022;-78
2021/10/27 10:20:53;;;;;;;4.13;1.75;;;18.50;80.60;;;;;;5009506;28;20038;-79
2021/10/27 10:23:21;;;;;;;5.30;1.85;;;18.60;80.50;;;;;;5009231;28;20056;-82
2021/10/27 10:25:55;;;;;;;2.65;1.58;;;18.70;80.50;;;;;;5008925;28;20046;-80
2021/10/27 10:28:26;;;;;;;4.03;2.15;;;18.70;80.20;;;;;;5023988;28;20070;-79
2021/10/27 10:31:01;;;;;;;4.57;2.65;;;18.80;80.10;;;;;;5008593;28;20030;-78
2021/10/27 10:33:42;;;;;;;6.30;2.45;;;18.90;79.90;;;;;;5009007;28;20037;-79
2021/10/27 10:36:31;;;;;;;2.50;1.60;;;19.00;80.20;;;;;;5009275;28;20053;-79
2021/10/27 10:39:12;;;;;;;4.75;1.85;;;19.20;79.80;;;;;;4995399;28;20545;-78
2021/10/27 10:59:18;;;;;;;2.22;1.50;;;19.80;79.20;;;;;;4998017;28;19913;-80
2021/10/27 11:38:19;;;;;;;2.85;1.52;;;20.20;77.20;;;;;;5007375;28;20029;-83
2021/10/27 11:40:48;;;;;;;4.47;1.45;;;20.20;77.20;;;;;;5007530;28;20494;-83
2021/10/27 11:43:31;;;;;;;2.83;1.48;;;20.30;77.30;;;;;;4997532;28;20035;-85
2021/10/27 11:46:09;;;;;;;10.80;2.63;;;20.30;77.20;;;;;;4987102;28;20524;-82
2021/10/27 11:48:57;;;;;;;3.95;1.67;;;20.30;77.20;;;;;;4996504;28;20054;-83
2021/10/27 11:51:23;;;;;;;4.13;1.95;;;20.30;77.10;;;;;;5007914;28;20030;-82
2021/10/27 11:53:49;;;;;;;4.25;1.70;;;20.40;77.10;;;;;;5006820;28;20069;-82
2021/10/27 11:56:21;;;;;;;4.85;2.00;;;20.40;77.10;;;;;;5007031;28;20121;-82
2021/10/27 11:58:50;;;;;;;5.33;1.60;;;20.40;77.00;;;;;;5006855;28;20763;-80
2021/10/27 12:01:27;;;;;;;3.65;1.80;;;20.40;77.10;;;;;;5022169;28;20770;-80
2021/10/27 12:03:57;;;;;;;2.67;1.30;;;20.40;76.90;;;;;;4992428;28;20034;-79
2021/10/27 12:06:36;;;;;;;5.88;1.98;;;20.40;76.90;;;;;;4979728;28;20354;-78
2021/10/27 12:15:21;;;;;;;4.30;1.73;;;20.40;76.70;;;;;;4992612;28;20133;-81
2021/10/27 12:18:16;;;;;;;2.63;1.45;;;20.40;76.60;;;;;;4990578;28;20117;-83
2021/10/27 12:20:53;;;;;;;6.22;1.65;;;20.40;76.60;;;;;;5007724;28;20177;-82
2021/10/27 12:23:22;;;;;;;3.72;1.67;;;20.40;76.60;;;;;;5000713;28;20031;-82
2021/10/27 12:25:51;;;;;;;6.43;1.90;;;20.40;76.70;;;;;;4991120;28;20545;-81
2021/10/27 12:28:29;;;;;;;3.35;1.85;;;20.30;76.50;;;;;;4997248;28;20034;-79
2021/10/27 12:30:56;;;;;;;4.28;1.55;;;20.30;76.40;;;;;;5009378;28;20470;-80
2021/10/27 12:33:43;;;;;;;3.67;1.00;;;20.30;76.40;;;;;;4994650;28;20030;-80
2021/10/27 12:36:26;;;;;;;4.28;1.48;;;20.30;76.40;;;;;;4984532;28;20042;-80
2021/10/27 12:39:15;;;;;;;4.90;1.73;;;20.20;76.30;;;;;;5008035;28;20034;-79
2021/10/27 12:41:44;;;;;;;2.67;1.23;;;20.20;76.30;;;;;;4990815;28;20093;-79
2021/10/27 12:44:25;;;;;;;4.10;1.50;;;20.20;76.40;;;;;;4988831;28;20030;-80
2021/10/27 12:47:15;;;;;;;1.63;1.02;;;20.20;76.40;;;;;;4990240;28;20040;-80
2021/10/27 12:49:44;;;;;;;4.40;1.50;;;20.10;76.30;;;;;;5008085;28;20045;-79
2021/10/27 12:52:30;;;;;;;4.90;1.88;;;20.10;76.30;;;;;;5008320;28;20037;-80
2021/10/27 12:55:14;;;;;;;4.20;1.50;;;20.10;76.40;;;;;;4991081;28;20477;-80
2021/10/27 12:57:48;;;;;;;4.10;1.58;;;20.00;76.30;;;;;;4991815;28;20492;-81
2021/10/27 13:14:05;;;;;;;3.90;1.48;;;19.80;76.50;;;;;;5009612;28;20092;-81
2021/10/27 13:30:14;;;;;;;3.95;1.40;;;19.70;76.70;;;;;;5009578;28;20022;-80
2021/10/27 13:32:45;;;;;;;3.75;1.55;;;19.70;76.70;;;;;;5004347;28;20134;-78
2021/10/27 13:35:11;;;;;;;2.42;1.23;;;19.70;76.80;;;;;;5005233;28;20364;-79
2021/10/27 13:37:37;;;;;;;4.28;1.75;;;19.60;76.60;;;;;;4990974;28;20058;-80
2021/10/27 13:40:04;;;;;;;2.20;1.20;;;19.70;76.90;;;;;;5009956;28;20033;-82
2021/10/27 13:42:42;;;;;;;2.50;0.98;;;19.60;76.60;;;;;;5006401;28;20137;-79
2021/10/27 13:45:27;;;;;;;3.58;1.17;;;19.60;76.70;;;;;;4989860;28;20042;-81
2021/10/27 13:59:10;;;;;;;2.03;1.02;;;19.50;76.70;;;;;;5008907;28;20030;-79
2021/10/27 14:06:51;;;;;;;1.73;0.85;;;19.40;76.70;;;;;;5009223;28;20038;-77
2021/10/27 14:19:49;;;;;;;5.70;2.00;;;19.30;76.80;;;;;;5005356;28;20033;-76
2021/10/27 15:24:52;;;;;;;4.03;1.38;;;19.30;77.00;;;;;;5006580;28;20111;-83
2021/10/27 15:51:42;;;;;;;5.78;2.53;;;19.20;77.20;;;;;;5007152;28;20104;-82
2021/10/27 15:54:08;;;;;;;7.15;2.83;;;19.10;77.00;;;;;;4990346;28;20326;-81
2021/10/27 15:56:34;;;;;;;4.80;1.65;;;19.10;77.10;;;;;;5005561;28;20061;-81
2021/10/27 15:59:00;;;;;;;5.82;1.83;;;19.10;77.70;;;;;;5007361;28;20525;-80
2021/10/27 16:01:26;;;;;;;6.88;2.88;;;19.10;77.10;;;;;;5006448;28;20030;-79
2021/10/27 16:03:52;;;;;;;6.20;1.80;;;19.10;77.20;;;;;;5005674;28;20095;-81
2021/10/27 16:06:24;;;;;;;5.70;1.98;;;19.10;77.30;;;;;;5021666;28;20153;-78
2021/10/27 16:08:54;;;;;;;3.95;1.92;;;19.00;77.10;;;;;;5022171;28;20037;-78
2021/10/27 16:11:20;;;;;;;4.47;1.50;;;19.00;77.20;;;;;;5021867;28;20533;-80
2021/10/27 16:13:46;;;;;;;5.60;2.15;;;19.00;77.20;;;;;;5007180;28;20038;-77
2021/10/27 16:16:14;;;;;;;5.80;1.65;;;19.00;77.20;;;;;;5003640;28;20030;-79
2021/10/27 16:18:40;;;;;;;5.57;2.30;;;18.90;77.10;;;;;;4995779;28;20108;-80
2021/10/27 16:21:06;;;;;;;5.18;1.98;;;18.90;77.20;;;;;;5007793;28;20123;-83
2021/10/27 16:23:32;;;;;;;4.68;2.13;;;18.90;77.20;;;;;;5006852;28;20038;-82
2021/10/27 16:25:58;;;;;;;5.22;1.70;;;18.90;77.30;;;;;;5022396;28;20263;-79
2021/10/27 16:28:25;;;;;;;5.95;1.85;;;18.80;77.20;;;;;;5007368;28;20030;-80
2021/10/27 16:30:53;;;;;;;7.03;2.28;;;18.80;77.30;;;;;;5006848;28;20030;-79
2021/10/27 16:33:21;;;;;;;5.43;2.22;;;18.70;77.20;;;;;;5006696;28;20052;-79
2021/10/27 16:35:49;;;;;;;7.47;1.75;;;18.70;77.30;;;;;;5005433;28;20041;-80
2021/10/27 16:38:15;;;;;;;5.90;1.92;;;18.60;77.20;;;;;;5005703;28;20038;-76
2021/10/27 16:40:42;;;;;;;4.72;2.20;;;18.60;77.30;;;;;;4997932;28;20038;-79
2021/10/27 16:43:08;;;;;;;6.50;2.40;;;18.50;77.20;;;;;;4998407;28;20022;-78
2021/10/27 16:45:34;;;;;;;13.57;3.15;;;18.50;77.30;;;;;;5002004;28;20050;-81
2021/10/27 16:48:01;;;;;;;5.80;2.72;;;18.40;77.20;;;;;;4990661;28;20034;-82
2021/10/27 16:50:27;;;;;;;8.10;2.65;;;18.40;77.30;;;;;;5006785;28;20057;-79
2021/10/27 16:52:56;;;;;;;9.75;3.42;;;18.30;77.20;;;;;;5005334;28;20080;-79
2021/10/27 16:55:23;;;;;;;10.35;3.88;;;18.30;77.40;;;;;;5006896;28;20057;-77
2021/10/27 16:57:52;;;;;;;10.70;3.40;;;18.30;77.60;;;;;;5001604;28;20044;-77
2021/10/27 17:00:20;;;;;;;11.15;3.40;;;18.30;78.40;;;;;;4990362;28;20042;-78
2021/10/27 17:02:46;;;;;;;14.27;4.03;;;18.20;77.80;;;;;;4997346;28;20569;-78
2021/10/27 17:05:12;;;;;;;6.00;3.47;;;18.20;78.00;;;;;;5006503;28;20109;-78
2021/10/27 17:07:39;;;;;;;5.95;2.63;;;18.20;78.10;;;;;;5007229;28;20485;-78
2021/10/27 17:10:08;;;;;;;5.47;2.80;;;18.20;78.20;;;;;;5009947;28;20083;-77
2021/10/27 17:12:35;;;;;;;6.57;2.30;;;18.20;78.40;;;;;;5005524;28;20034;-78
2021/10/27 17:15:02;;;;;;;5.03;2.42;;;18.20;78.50;;;;;;4991265;28;20386;-78
2021/10/27 17:17:28;;;;;;;7.93;2.88;;;18.20;78.50;;;;;;4989295;28;20034;-79
2021/10/27 17:19:55;;;;;;;7.28;3.40;;;18.10;78.40;;;;;;5008310;28;20037;-81
2021/10/27 17:22:25;;;;;;;10.48;3.00;;;18.10;78.40;;;;;;5012558;28;20029;-84
2021/10/27 17:24:51;;;;;;;8.98;2.97;;;18.10;78.40;;;;;;5010551;28;20118;-81
2021/10/27 17:27:17;;;;;;;9.43;2.22;;;18.10;78.40;;;;;;5010214;28;20053;-81
2021/10/27 17:29:44;;;;;;;5.78;2.92;;;18.00;78.10;;;;;;5023398;28;20029;-85
2021/10/27 17:32:10;;;;;;;5.28;2.25;;;18.00;78.10;;;;;;4983905;28;20031;-83
2021/10/27 17:34:36;;;;;;;9.18;3.63;;;18.00;78.10;;;;;;4998963;28;20038;-78
2021/10/27 17:37:02;;;;;;;5.05;2.53;;;17.90;77.90;;;;;;5001267;28;20031;-82
2021/10/27 17:39:30;;;;;;;6.13;2.10;;;17.90;77.90;;;;;;4993064;28;20394;-80
2021/10/27 17:41:58;;;;;;;7.13;2.75;;;17.80;77.70;;;;;;4989263;28;20169;-81
2021/10/27 17:44:25;;;;;;;5.28;2.25;;;17.80;77.70;;;;;;5002980;28;20146;-83
2021/10/27 17:46:57;;;;;;;5.60;2.78;;;17.70;77.60;;;;;;4983010;28;20141;-82
2021/10/27 18:00:08;;;;;;;7.68;2.45;;;17.60;78.40;;;;;;4984869;28;20117;-79